Alsen, North Dakota
Current Conditions -  °F | °C
As of 3:55 PM on Sunday 23 Nov 2014 (Local Time) from KD55 Reporting Station
Light Snow Light Snow  
Wind Chill:   Ceiling: 900
Heat Index: 16°   Visibility: 3mi
Dew Point: 12°   Wind: 5mph
Humidity: 86%   Direction: 360°N
Pressure: 29.5"   Gusts: NA
Location:  48.63°N, 98.7°W
Report Text: KD55 232155Z AUTO 36004KT 3SM -SN OVC009 M09/M11 A2950 RMK AO2 P0001
Loading
Personal Weather Stations






























Interactive Weather Map New forecast layout! Learn more

10-Day Weather Forecast

Advertisements
Track Severe Weather on mobile